createdAt,value
2023-03-26T00:00:02.844Z,938.84
2023-03-26T00:00:12.841Z,938.84
2023-03-26T00:00:22.834Z,938.82
2023-03-26T00:00:32.878Z,938.84
2023-03-26T00:00:52.840Z,938.77
2023-03-26T00:01:02.838Z,938.78
2023-03-26T00:01:12.843Z,938.81
2023-03-26T00:01:22.872Z,938.80
2023-03-26T00:01:32.912Z,938.79
2023-03-26T00:01:42.885Z,938.80
2023-03-26T00:01:52.877Z,938.82
2023-03-26T00:02:02.912Z,938.82
2023-03-26T00:02:12.871Z,938.83
2023-03-26T00:02:32.939Z,938.87
2023-03-26T00:02:42.901Z,938.84
2023-03-26T00:02:52.991Z,938.77
2023-03-26T00:03:02.964Z,938.77
2023-03-26T00:03:12.931Z,938.81
2023-03-26T00:03:22.853Z,938.82
2023-03-26T00:03:32.849Z,938.82
2023-03-26T00:03:42.859Z,938.86
2023-03-26T00:04:02.970Z,938.87
2023-03-26T00:04:12.869Z,938.75
2023-03-26T00:04:22.859Z,938.79
2023-03-26T00:04:32.862Z,938.78
2023-03-26T00:04:42.870Z,938.77
2023-03-26T00:04:53.861Z,938.77
2023-03-26T00:05:03.864Z,938.81
2023-03-26T00:05:12.880Z,938.77
2023-03-26T00:05:23.895Z,938.81
2023-03-26T00:05:32.887Z,938.80
2023-03-26T00:05:43.948Z,938.84
2023-03-26T00:06:02.961Z,938.83
2023-03-26T00:06:12.868Z,938.85
2023-03-26T00:06:22.893Z,938.88
2023-03-26T00:06:32.867Z,938.86
2023-03-26T00:06:42.875Z,938.88
2023-03-26T00:06:52.869Z,938.85
2023-03-26T00:07:02.875Z,938.83
2023-03-26T00:07:12.878Z,938.85
2023-03-26T00:07:22.888Z,938.82
2023-03-26T00:07:42.869Z,938.84
2023-03-26T00:07:52.868Z,938.83
2023-03-26T00:08:02.873Z,938.88
2023-03-26T00:08:12.874Z,938.87
2023-03-26T00:08:22.884Z,938.85
2023-03-26T00:08:32.879Z,938.88
2023-03-26T00:08:42.874Z,938.86
2023-03-26T00:08:52.894Z,938.83
2023-03-26T00:09:02.883Z,938.89
2023-03-26T00:09:12.912Z,938.74
2023-03-26T00:09:22.883Z,938.81
2023-03-26T00:09:32.889Z,938.85
2023-03-26T00:09:42.881Z,938.84
2023-03-26T00:09:52.901Z,938.84
2023-03-26T00:10:12.892Z,938.90
2023-03-26T00:10:22.882Z,938.88
2023-03-26T00:10:32.896Z,938.87
2023-03-26T00:10:42.893Z,938.89
2023-03-26T00:10:52.881Z,938.89
2023-03-26T00:11:02.898Z,938.84
2023-03-26T00:11:12.897Z,938.85
2023-03-26T00:11:22.885Z,938.87
2023-03-26T00:11:42.923Z,938.91
2023-03-26T00:11:52.896Z,938.90
2023-03-26T00:12:02.899Z,938.93
2023-03-26T00:12:12.919Z,938.92
2023-03-26T00:12:22.896Z,938.93
2023-03-26T00:12:32.902Z,938.88
2023-03-26T00:12:42.894Z,938.89
2023-03-26T00:12:52.899Z,938.88
2023-03-26T00:13:02.927Z,938.84
2023-03-26T00:13:12.905Z,938.86
2023-03-26T00:13:22.899Z,938.84
2023-03-26T00:13:32.905Z,938.85
2023-03-26T00:13:42.907Z,938.80
2023-03-26T00:13:52.905Z,938.70
2023-03-26T00:14:02.906Z,938.86
2023-03-26T00:14:22.909Z,938.78
2023-03-26T00:14:32.898Z,938.74
2023-03-26T00:14:42.903Z,938.78
2023-03-26T00:14:52.922Z,938.78
2023-03-26T00:15:02.913Z,938.85
2023-03-26T00:15:12.929Z,938.82
2023-03-26T00:15:22.919Z,938.82
2023-03-26T00:15:32.906Z,938.89
2023-03-26T00:15:42.918Z,938.84
2023-03-26T00:15:53.196Z,938.88
2023-03-26T00:16:02.928Z,938.87
2023-03-26T00:16:13.910Z,938.84
2023-03-26T00:16:23.041Z,938.83
2023-03-26T00:16:32.970Z,938.77
2023-03-26T00:16:43.008Z,938.87
2023-03-26T00:16:53.014Z,938.85
2023-03-26T00:17:02.924Z,938.84
2023-03-26T00:17:22.933Z,938.84
2023-03-26T00:17:32.949Z,938.79
2023-03-26T00:17:42.968Z,938.87
2023-03-26T00:17:52.964Z,938.88
2023-03-26T00:18:02.998Z,938.84
2023-03-26T00:18:12.921Z,938.81
2023-03-26T00:18:22.933Z,938.79
2023-03-26T00:18:42.921Z,938.85
2023-03-26T00:18:52.926Z,938.86
2023-03-26T00:19:02.929Z,938.84
2023-03-26T00:19:12.928Z,938.88
2023-03-26T00:19:22.948Z,938.86
2023-03-26T00:19:33.006Z,938.83
2023-03-26T00:19:42.933Z,938.76
2023-03-26T00:19:52.937Z,938.73
2023-03-26T00:20:02.937Z,938.75
2023-03-26T00:20:12.936Z,938.89
2023-03-26T00:20:22.946Z,938.89
2023-03-26T00:20:32.937Z,938.89
2023-03-26T00:20:42.939Z,938.90
2023-03-26T00:20:52.960Z,938.91
2023-03-26T00:21:12.939Z,938.89
2023-03-26T00:21:22.947Z,938.85
2023-03-26T00:21:32.944Z,938.79
2023-03-26T00:21:42.974Z,938.85
2023-03-26T00:21:52.942Z,938.86
2023-03-26T00:22:02.945Z,938.86
2023-03-26T00:22:12.943Z,938.88
2023-03-26T00:22:22.949Z,938.90
2023-03-26T00:22:42.959Z,938.90
2023-03-26T00:22:52.946Z,938.73
2023-03-26T00:23:02.955Z,938.81
2023-03-26T00:23:12.951Z,938.92
2023-03-26T00:23:22.950Z,938.78
2023-03-26T00:23:32.974Z,938.82
2023-03-26T00:23:42.942Z,938.81
2023-03-26T00:23:52.990Z,938.75
2023-03-26T00:24:02.997Z,938.70
2023-03-26T00:24:12.956Z,938.78
2023-03-26T00:24:22.956Z,938.81
2023-03-26T00:24:32.972Z,938.82
2023-03-26T00:24:42.954Z,938.85
2023-03-26T00:24:52.954Z,938.86
2023-03-26T00:25:02.977Z,938.87
2023-03-26T00:25:12.955Z,938.83
2023-03-26T00:25:22.960Z,938.80
2023-03-26T00:25:32.961Z,938.81
2023-03-26T00:25:42.943Z,938.83
2023-03-26T00:25:53.140Z,938.84
2023-03-26T00:26:12.970Z,938.83
2023-03-26T00:26:22.973Z,938.85
2023-03-26T00:26:32.986Z,938.90
2023-03-26T00:26:42.978Z,938.90
2023-03-26T00:26:52.968Z,938.85
2023-03-26T00:27:02.989Z,938.84
2023-03-26T00:27:12.973Z,938.91
2023-03-26T00:27:22.963Z,938.83
2023-03-26T00:27:42.978Z,938.86
2023-03-26T00:27:52.967Z,938.87
2023-03-26T00:28:02.966Z,938.87
2023-03-26T00:28:12.976Z,938.83
2023-03-26T00:28:22.971Z,938.83
2023-03-26T00:28:32.978Z,938.84
2023-03-26T00:28:42.986Z,938.80
2023-03-26T00:28:52.980Z,938.81
2023-03-26T00:29:02.973Z,938.84
2023-03-26T00:29:13.011Z,938.77
2023-03-26T00:29:23.119Z,938.85
2023-03-26T00:29:32.982Z,938.89
2023-03-26T00:29:43.005Z,938.81
2023-03-26T00:29:52.982Z,938.84
2023-03-26T00:30:02.978Z,938.86
2023-03-26T00:30:12.985Z,938.87
2023-03-26T00:30:22.988Z,938.82
2023-03-26T00:30:32.991Z,938.84
2023-03-26T00:30:53.040Z,938.85
2023-03-26T00:31:03.015Z,938.79
2023-03-26T00:31:13.046Z,938.81
2023-03-26T00:31:23.035Z,938.81
2023-03-26T00:31:33.038Z,938.76
2023-03-26T00:31:42.987Z,938.81
2023-03-26T00:31:52.992Z,938.87
2023-03-26T00:32:02.987Z,938.92
2023-03-26T00:32:13.005Z,938.87
2023-03-26T00:32:22.997Z,938.85
2023-03-26T00:32:43.015Z,938.87
2023-03-26T00:32:53.413Z,938.77
2023-03-26T00:33:03.043Z,938.83
2023-03-26T00:33:13.055Z,938.78
2023-03-26T00:33:22.997Z,938.85
2023-03-26T00:33:33.011Z,938.88
2023-03-26T00:33:43.005Z,938.89
2023-03-26T00:33:53.013Z,938.84
2023-03-26T00:34:03.007Z,938.88
2023-03-26T00:34:13.011Z,938.86
2023-03-26T00:34:22.992Z,938.86
2023-03-26T00:34:33.023Z,938.86
2023-03-26T00:34:43.035Z,938.81
2023-03-26T00:34:53.011Z,938.82
2023-03-26T00:35:03.010Z,938.83
2023-03-26T00:35:13.022Z,938.84
2023-03-26T00:35:23.019Z,938.83
2023-03-26T00:35:33.032Z,938.85
2023-03-26T00:35:53.328Z,938.84
2023-03-26T00:36:04.555Z,938.75
2023-03-26T00:36:13.042Z,938.68
2023-03-26T00:36:23.111Z,938.78
2023-03-26T00:36:33.027Z,938.84
2023-03-26T00:36:43.018Z,938.79
2023-03-26T00:36:53.044Z,938.81
2023-03-26T00:37:03.006Z,938.83
2023-03-26T00:37:13.017Z,938.82
2023-03-26T00:37:23.018Z,938.88
2023-03-26T00:37:43.027Z,938.84
2023-03-26T00:37:53.029Z,938.85
2023-03-26T00:38:03.028Z,938.85
2023-03-26T00:38:13.028Z,938.83
2023-03-26T00:38:23.036Z,938.84
2023-03-26T00:38:33.026Z,938.86
2023-03-26T00:38:43.034Z,938.87
2023-03-26T00:38:53.025Z,938.84
2023-03-26T00:39:03.029Z,938.86
2023-03-26T00:39:13.052Z,938.84
2023-03-26T00:39:23.035Z,938.68
2023-03-26T00:39:33.032Z,938.86
2023-03-26T00:39:43.031Z,938.77
2023-03-26T00:39:53.035Z,938.83
2023-03-26T00:40:04.037Z,938.84
2023-03-26T00:40:13.065Z,938.91
2023-03-26T00:40:23.065Z,938.93
2023-03-26T00:40:33.044Z,938.94
2023-03-26T00:40:43.043Z,938.94
2023-03-26T00:40:53.043Z,938.80
2023-03-26T00:41:13.040Z,938.79
2023-03-26T00:41:23.147Z,938.82
2023-03-26T00:41:33.061Z,938.79
2023-03-26T00:41:43.257Z,938.84
2023-03-26T00:41:53.050Z,938.83
2023-03-26T00:42:03.056Z,938.83
2023-03-26T00:42:13.058Z,938.84
2023-03-26T00:42:23.053Z,938.88
2023-03-26T00:42:43.063Z,938.90
2023-03-26T00:42:53.052Z,938.92
2023-03-26T00:43:03.037Z,938.93
2023-03-26T00:43:13.053Z,938.94
2023-03-26T00:43:23.060Z,938.94
2023-03-26T00:43:33.066Z,938.96
2023-03-26T00:43:53.055Z,938.92
2023-03-26T00:44:03.070Z,938.91
2023-03-26T00:44:13.072Z,938.88
2023-03-26T00:44:23.082Z,938.90
2023-03-26T00:44:33.058Z,938.90
2023-03-26T00:44:43.059Z,938.85
2023-03-26T00:44:53.088Z,938.84
2023-03-26T00:45:03.075Z,938.86
2023-03-26T00:45:23.095Z,938.92
2023-03-26T00:45:33.060Z,938.89
2023-03-26T00:45:43.102Z,938.93
2023-03-26T00:45:53.466Z,938.88
2023-03-26T00:46:03.109Z,938.89
2023-03-26T00:46:13.096Z,938.93
2023-03-26T00:46:23.084Z,938.94
2023-03-26T00:46:33.128Z,938.78
2023-03-26T00:46:43.120Z,938.91
2023-03-26T00:47:03.097Z,938.89
2023-03-26T00:47:13.068Z,938.88
2023-03-26T00:47:23.082Z,938.78
2023-03-26T00:47:33.089Z,938.90
2023-03-26T00:47:43.091Z,938.87
2023-03-26T00:47:53.099Z,938.92
2023-03-26T00:48:03.092Z,938.92
2023-03-26T00:48:13.089Z,938.92
2023-03-26T00:48:34.285Z,938.91
2023-03-26T00:48:44.352Z,938.88
2023-03-26T00:48:45.891Z,938.87
2023-03-26T00:48:53.089Z,938.89
2023-03-26T00:49:03.090Z,938.90
2023-03-26T00:49:13.086Z,938.88
2023-03-26T00:49:23.089Z,938.88
2023-03-26T00:49:43.096Z,938.81
2023-03-26T00:49:53.096Z,938.88
2023-03-26T00:50:03.105Z,938.91
2023-03-26T00:50:13.086Z,938.90
2023-03-26T00:50:23.087Z,938.90
2023-03-26T00:50:33.087Z,938.77
2023-03-26T00:50:43.100Z,938.86
2023-03-26T00:50:53.126Z,938.86
2023-03-26T00:51:13.090Z,938.80
2023-03-26T00:51:23.086Z,938.84
2023-03-26T00:51:33.117Z,938.81
2023-03-26T00:51:43.103Z,938.77
2023-03-26T00:51:53.117Z,938.84
2023-03-26T00:52:03.110Z,938.86
2023-03-26T00:52:13.107Z,938.82
2023-03-26T00:52:23.096Z,938.83
2023-03-26T00:52:43.101Z,938.86
2023-03-26T00:52:53.096Z,938.90
2023-03-26T00:53:03.098Z,938.88
2023-03-26T00:53:13.100Z,938.89
2023-03-26T00:53:23.235Z,938.94
2023-03-26T00:53:33.098Z,938.93
2023-03-26T00:53:43.102Z,938.91
2023-03-26T00:53:53.108Z,938.87
2023-03-26T00:54:03.133Z,938.83
2023-03-26T00:54:13.104Z,938.86
2023-03-26T00:54:23.868Z,938.84
2023-03-26T00:54:33.104Z,938.85
2023-03-26T00:54:43.116Z,938.84
2023-03-26T00:55:03.112Z,938.90
2023-03-26T00:55:13.108Z,938.91
2023-03-26T00:55:23.115Z,938.87
2023-03-26T00:55:33.112Z,938.86
2023-03-26T00:55:43.115Z,938.88
2023-03-26T00:55:53.350Z,938.93
2023-03-26T00:56:03.133Z,938.83
2023-03-26T00:56:13.138Z,938.84
2023-03-26T00:56:33.141Z,938.86
2023-03-26T00:56:43.161Z,938.84
2023-03-26T00:56:53.141Z,938.80
2023-03-26T00:57:03.178Z,938.82
2023-03-26T00:57:20.214Z,938.89
2023-03-26T00:57:35.054Z,938.89
2023-03-26T00:57:35.756Z,938.89
2023-03-26T00:57:43.140Z,938.88
2023-03-26T00:57:53.125Z,938.94
2023-03-26T00:58:03.133Z,938.88
2023-03-26T00:58:13.121Z,938.89
2023-03-26T00:58:33.123Z,938.87
2023-03-26T00:58:43.126Z,938.80
2023-03-26T00:58:53.136Z,938.86
2023-03-26T00:59:03.129Z,938.80
2023-03-26T00:59:13.134Z,938.72
2023-03-26T00:59:23.137Z,938.73
2023-03-26T00:59:33.135Z,938.74
2023-03-26T00:59:43.133Z,938.74
2023-03-26T00:59:53.152Z,938.79
2023-03-26T01:00:03.131Z,938.83
2023-03-26T01:00:13.130Z,938.90
2023-03-26T01:00:23.143Z,938.71
2023-03-26T01:00:33.132Z,938.71
2023-03-26T01:00:44.207Z,938.89
2023-03-26T01:00:53.159Z,938.85
2023-03-26T01:01:03.213Z,938.81
2023-03-26T01:01:13.154Z,938.82
2023-03-26T01:01:23.179Z,938.89
2023-03-26T01:01:33.192Z,938.87
2023-03-26T01:01:43.173Z,938.85
2023-03-26T01:01:53.184Z,938.85
2023-03-26T01:02:03.407Z,938.84
2023-03-26T01:02:13.180Z,938.83
2023-03-26T01:02:23.246Z,938.88
2023-03-26T01:02:43.222Z,938.85
2023-03-26T01:02:53.165Z,938.82
2023-03-26T01:03:03.207Z,938.88
2023-03-26T01:03:26.621Z,938.81
2023-03-26T01:03:27.441Z,938.87
2023-03-26T01:03:33.238Z,938.80
2023-03-26T01:03:53.102Z,938.86
2023-03-26T01:04:06.814Z,938.89
2023-03-26T01:04:08.403Z,938.90
2023-03-26T01:04:14.236Z,938.89
2023-03-26T01:04:33.282Z,938.91
2023-03-26T01:04:43.208Z,938.83
2023-03-26T01:04:53.238Z,938.79
2023-03-26T01:05:03.222Z,938.78
2023-03-26T01:05:13.224Z,938.84
2023-03-26T01:05:23.208Z,938.87
2023-03-26T01:05:33.158Z,938.85
2023-03-26T01:05:43.153Z,938.86
2023-03-26T01:05:53.422Z,938.93
2023-03-26T01:06:03.157Z,938.96
2023-03-26T01:06:13.188Z,938.93
2023-03-26T01:06:23.162Z,938.92
2023-03-26T01:06:33.160Z,938.95
2023-03-26T01:06:43.163Z,938.93
2023-03-26T01:07:03.162Z,938.94
2023-03-26T01:07:13.157Z,938.89
2023-03-26T01:07:23.164Z,938.90
2023-03-26T01:07:33.160Z,938.88
2023-03-26T01:07:43.165Z,938.90
2023-03-26T01:07:53.176Z,938.88
2023-03-26T01:08:03.170Z,938.86
2023-03-26T01:08:13.868Z,938.86
2023-03-26T01:08:23.162Z,938.77
2023-03-26T01:08:33.166Z,938.84
2023-03-26T01:08:43.194Z,938.96
2023-03-26T01:08:53.170Z,938.92
2023-03-26T01:09:03.173Z,938.86
2023-03-26T01:09:23.183Z,938.76
2023-03-26T01:09:33.227Z,938.82
2023-03-26T01:09:43.171Z,938.88
2023-03-26T01:09:53.175Z,938.82
2023-03-26T01:10:03.184Z,938.83
2023-03-26T01:10:13.185Z,938.86
2023-03-26T01:10:23.178Z,938.90
2023-03-26T01:10:33.176Z,938.81
2023-03-26T01:10:43.199Z,938.84
2023-03-26T01:10:53.201Z,938.76
2023-03-26T01:11:03.190Z,938.82
2023-03-26T01:11:13.180Z,938.84
2023-03-26T01:11:23.199Z,938.86
2023-03-26T01:11:43.188Z,938.83
2023-03-26T01:11:53.177Z,938.80
2023-03-26T01:12:03.197Z,938.89
2023-03-26T01:12:13.179Z,938.72
2023-03-26T01:12:23.182Z,938.86
2023-03-26T01:12:33.190Z,938.84
2023-03-26T01:12:53.181Z,938.94
2023-03-26T01:13:03.180Z,938.85
2023-03-26T01:13:13.184Z,938.87
2023-03-26T01:13:23.260Z,938.91
2023-03-26T01:13:33.199Z,938.92
2023-03-26T01:13:43.186Z,938.74
2023-03-26T01:13:53.206Z,938.91
2023-03-26T01:14:03.184Z,938.88
2023-03-26T01:14:13.193Z,938.92
2023-03-26T01:14:23.202Z,938.89
2023-03-26T01:14:33.195Z,938.94
2023-03-26T01:14:43.209Z,938.93
2023-03-26T01:14:53.204Z,938.89
2023-03-26T01:15:03.191Z,938.96
2023-03-26T01:15:13.201Z,938.59
2023-03-26T01:15:23.194Z,938.82
2023-03-26T01:15:33.240Z,938.97
2023-03-26T01:15:53.578Z,938.97
2023-03-26T01:16:03.239Z,938.97
2023-03-26T01:16:13.212Z,938.96
2023-03-26T01:16:23.304Z,938.99
2023-03-26T01:16:33.197Z,938.86
2023-03-26T01:16:43.203Z,938.85
2023-03-26T01:16:53.222Z,938.88
2023-03-26T01:17:03.207Z,938.85
2023-03-26T01:17:13.207Z,938.87
2023-03-26T01:17:23.255Z,938.87
2023-03-26T01:17:33.252Z,938.84
2023-03-26T01:17:43.290Z,938.87
2023-03-26T01:17:53.256Z,938.84
2023-03-26T01:18:03.231Z,938.89
2023-03-26T01:18:13.203Z,938.89
2023-03-26T01:18:33.213Z,938.91
2023-03-26T01:18:43.208Z,938.96
2023-03-26T01:18:53.244Z,938.93
2023-03-26T01:19:03.215Z,938.92
2023-03-26T01:19:13.215Z,938.85
2023-03-26T01:19:23.215Z,938.86
2023-03-26T01:19:33.210Z,938.90
2023-03-26T01:19:43.236Z,938.80
2023-03-26T01:20:03.219Z,938.86
2023-03-26T01:20:13.235Z,938.85
2023-03-26T01:20:23.245Z,938.88
2023-03-26T01:20:33.222Z,938.88
2023-03-26T01:20:43.221Z,938.84
2023-03-26T01:20:53.225Z,938.88
2023-03-26T01:21:03.224Z,938.90
2023-03-26T01:21:13.234Z,938.90
2023-03-26T01:21:23.224Z,938.88
2023-03-26T01:21:33.225Z,938.89
2023-03-26T01:21:43.245Z,938.80
2023-03-26T01:21:53.222Z,938.83
2023-03-26T01:22:13.225Z,938.85
2023-03-26T01:22:23.229Z,938.89
2023-03-26T01:22:33.226Z,938.92
2023-03-26T01:22:43.243Z,938.88
2023-03-26T01:22:53.248Z,938.91
2023-03-26T01:23:03.238Z,938.88
2023-03-26T01:23:13.236Z,938.89
2023-03-26T01:23:23.231Z,938.89
2023-03-26T01:23:33.254Z,938.92
2023-03-26T01:23:43.233Z,938.91
2023-03-26T01:23:53.245Z,938.92
2023-03-26T01:24:03.241Z,938.92
2023-03-26T01:24:13.245Z,938.91
2023-03-26T01:24:23.239Z,938.92
2023-03-26T01:24:33.241Z,938.92
2023-03-26T01:24:43.244Z,938.93
2023-03-26T01:24:53.689Z,938.92
2023-03-26T01:25:03.278Z,938.92
2023-03-26T01:25:23.277Z,938.94
2023-03-26T01:25:33.249Z,938.98
2023-03-26T01:25:43.247Z,938.94
2023-03-26T01:25:53.384Z,938.94
2023-03-26T01:26:03.258Z,938.77
2023-03-26T01:26:13.248Z,938.84
2023-03-26T01:26:33.252Z,938.91
2023-03-26T01:26:43.272Z,938.93
2023-03-26T01:26:53.252Z,938.94
2023-03-26T01:27:03.275Z,938.90
2023-03-26T01:27:13.260Z,938.93
2023-03-26T01:27:23.250Z,938.97
2023-03-26T01:27:33.237Z,938.93
2023-03-26T01:27:53.251Z,938.92
2023-03-26T01:28:03.257Z,938.89
2023-03-26T01:28:13.265Z,938.95
2023-03-26T01:28:23.259Z,938.93
2023-03-26T01:28:33.284Z,938.76
2023-03-26T01:28:43.278Z,938.80
2023-03-26T01:28:53.260Z,938.93
2023-03-26T01:29:03.270Z,938.97
2023-03-26T01:29:13.267Z,938.97
2023-03-26T01:29:23.299Z,938.93
2023-03-26T01:29:33.268Z,938.97
2023-03-26T01:29:43.287Z,939.00
2023-03-26T01:29:53.264Z,938.90
2023-03-26T01:30:03.274Z,938.92
2023-03-26T01:30:13.290Z,938.96
2023-03-26T01:30:33.266Z,939.02
2023-03-26T01:30:43.279Z,938.91
2023-03-26T01:30:53.274Z,939.00
2023-03-26T01:31:03.394Z,938.91
2023-03-26T01:31:13.271Z,938.93
2023-03-26T01:31:23.272Z,938.95
2023-03-26T01:31:33.289Z,938.97
2023-03-26T01:31:43.302Z,938.99
2023-03-26T01:31:53.866Z,938.98
2023-03-26T01:32:03.284Z,938.96
2023-03-26T01:32:13.314Z,938.91
2023-03-26T01:32:23.391Z,938.89
2023-03-26T01:32:33.465Z,938.91
2023-03-26T01:32:53.519Z,938.90
2023-03-26T01:33:03.419Z,938.92
2023-03-26T01:33:13.364Z,938.95
2023-03-26T01:33:23.395Z,938.87
2023-03-26T01:33:33.342Z,938.94
2023-03-26T01:33:43.340Z,938.94
2023-03-26T01:33:53.285Z,938.91
2023-03-26T01:34:03.280Z,938.92
2023-03-26T01:34:13.312Z,938.89
2023-03-26T01:34:33.288Z,938.90
2023-03-26T01:34:43.290Z,938.94
2023-03-26T01:34:53.289Z,938.94
2023-03-26T01:35:03.303Z,938.95
2023-03-26T01:35:13.288Z,938.91
2023-03-26T01:35:23.412Z,938.92
2023-03-26T01:35:33.319Z,938.93
2023-03-26T01:35:43.356Z,938.95
2023-03-26T01:35:53.720Z,938.95
2023-03-26T01:36:03.368Z,938.94
2023-03-26T01:36:13.300Z,938.94
2023-03-26T01:36:23.322Z,938.93
2023-03-26T01:36:33.311Z,938.96
2023-03-26T01:36:43.292Z,938.98
2023-03-26T01:36:53.304Z,938.97
2023-03-26T01:37:03.426Z,938.97
2023-03-26T01:37:13.310Z,938.91
2023-03-26T01:37:23.305Z,938.90
2023-03-26T01:37:33.313Z,938.93
2023-03-26T01:37:43.299Z,938.92
2023-03-26T01:37:53.316Z,938.94
2023-03-26T01:38:13.302Z,938.94
2023-03-26T01:38:23.427Z,938.92
2023-03-26T01:38:33.308Z,938.94
2023-03-26T01:38:43.306Z,938.92
2023-03-26T01:38:53.301Z,938.96
2023-03-26T01:39:03.411Z,938.98
2023-03-26T01:39:13.311Z,938.89
2023-03-26T01:39:23.312Z,938.91
2023-03-26T01:39:33.306Z,938.94
2023-03-26T01:39:43.306Z,938.91
2023-03-26T01:39:53.336Z,938.95
2023-03-26T01:40:13.315Z,938.81
2023-03-26T01:40:23.316Z,938.87
2023-03-26T01:40:33.310Z,938.95
2023-03-26T01:40:43.344Z,938.95
2023-03-26T01:40:53.331Z,938.93
2023-03-26T01:41:03.321Z,938.93
2023-03-26T01:41:13.346Z,938.93
2023-03-26T01:41:23.320Z,938.91
2023-03-26T01:41:33.321Z,938.93
2023-03-26T01:41:43.326Z,938.93
2023-03-26T01:42:03.352Z,938.90
2023-03-26T01:42:13.345Z,938.97
2023-03-26T01:42:23.330Z,938.86
2023-03-26T01:42:33.329Z,938.78
2023-03-26T01:42:43.326Z,938.90
2023-03-26T01:42:53.350Z,938.87
2023-03-26T01:43:03.416Z,938.86
2023-03-26T01:43:13.329Z,938.79
2023-03-26T01:43:23.326Z,938.93
2023-03-26T01:43:33.349Z,938.91
2023-03-26T01:43:43.327Z,938.91
2023-03-26T01:44:03.412Z,938.94
2023-03-26T01:44:13.332Z,938.88
2023-03-26T01:44:23.337Z,938.88
2023-03-26T01:44:33.346Z,938.92
2023-03-26T01:44:43.341Z,938.94
2023-03-26T01:44:53.343Z,938.94
2023-03-26T01:45:13.346Z,938.90
2023-03-26T01:45:23.345Z,938.94
2023-03-26T01:45:33.367Z,938.93
2023-03-26T01:45:43.334Z,938.93
2023-03-26T01:45:53.683Z,938.93
2023-03-26T01:46:03.461Z,938.92
2023-03-26T01:46:13.380Z,938.93
2023-03-26T01:46:23.395Z,938.92
2023-03-26T01:46:43.372Z,938.89
2023-03-26T01:46:53.381Z,938.91
2023-03-26T01:47:03.355Z,938.92
2023-03-26T01:47:13.367Z,938.89
2023-03-26T01:47:23.417Z,938.92
2023-03-26T01:47:33.395Z,938.95
2023-03-26T01:47:53.432Z,938.92
2023-03-26T01:48:03.462Z,938.91
2023-03-26T01:48:13.350Z,938.91
2023-03-26T01:48:23.344Z,938.86
2023-03-26T01:48:33.361Z,938.92
2023-03-26T01:48:43.353Z,938.85
2023-03-26T01:49:03.413Z,938.87
2023-03-26T01:49:13.731Z,938.94
2023-03-26T01:49:23.350Z,938.95
2023-03-26T01:49:33.384Z,938.94
2023-03-26T01:49:43.354Z,938.97
2023-03-26T01:49:53.355Z,938.95
2023-03-26T01:50:03.433Z,938.95
2023-03-26T01:50:13.364Z,938.93
2023-03-26T01:50:23.376Z,938.93
2023-03-26T01:50:43.365Z,938.94
2023-03-26T01:50:53.356Z,938.89
2023-03-26T01:51:03.439Z,938.87
2023-03-26T01:51:13.364Z,938.89
2023-03-26T01:51:23.373Z,938.87
2023-03-26T01:51:33.381Z,938.84
2023-03-26T01:51:53.381Z,938.91
2023-03-26T01:52:03.462Z,938.97
2023-03-26T01:52:13.362Z,938.85
2023-03-26T01:52:23.380Z,938.92
2023-03-26T01:52:33.373Z,938.98
2023-03-26T01:52:43.372Z,938.96
2023-03-26T01:53:03.489Z,938.83
2023-03-26T01:53:13.389Z,939.02
2023-03-26T01:53:23.401Z,938.97
2023-03-26T01:53:33.427Z,938.93
2023-03-26T01:53:43.386Z,938.95
2023-03-26T01:53:53.372Z,938.94
2023-03-26T01:54:03.442Z,938.92
2023-03-26T01:54:13.394Z,938.92
2023-03-26T01:54:23.393Z,938.92
2023-03-26T01:54:33.384Z,938.93
2023-03-26T01:54:43.379Z,938.92
2023-03-26T01:54:53.379Z,938.92
2023-03-26T01:55:03.464Z,938.91
2023-03-26T01:55:23.390Z,938.82
2023-03-26T01:55:33.386Z,938.94
2023-03-26T01:55:43.383Z,938.96
2023-03-26T01:55:53.561Z,938.95
2023-03-26T01:56:03.431Z,938.79
2023-03-26T01:56:13.402Z,938.85
2023-03-26T01:56:23.386Z,938.87
2023-03-26T01:56:33.409Z,938.88
2023-03-26T01:56:43.405Z,938.88
2023-03-26T01:56:53.442Z,938.91
2023-03-26T01:57:13.438Z,938.93
2023-03-26T01:57:23.426Z,938.95
2023-03-26T01:57:33.393Z,938.97
2023-03-26T01:57:43.394Z,938.92
2023-03-26T01:57:53.412Z,938.94
2023-03-26T01:58:03.428Z,938.90
2023-03-26T01:58:13.406Z,938.92
2023-03-26T01:58:33.391Z,938.87
2023-03-26T01:58:43.421Z,938.91
2023-03-26T01:58:53.424Z,938.90
2023-03-26T01:59:03.400Z,938.91
2023-03-26T01:59:13.392Z,938.87
2023-03-26T01:59:23.399Z,938.91
2023-03-26T01:59:33.400Z,938.90
2023-03-26T01:59:53.402Z,938.93
2023-03-26T02:00:03.421Z,938.87
2023-03-26T02:00:13.405Z,938.92
2023-03-26T02:00:23.404Z,938.93
2023-03-26T02:00:33.407Z,938.92
2023-03-26T02:00:43.412Z,938.89
2023-03-26T02:00:53.407Z,938.94
2023-03-26T02:01:03.528Z,938.92
2023-03-26T02:01:13.440Z,938.94
2023-03-26T02:01:23.448Z,938.93
2023-03-26T02:01:33.437Z,938.90
2023-03-26T02:01:43.512Z,938.94
2023-03-26T02:01:53.537Z,938.90
2023-03-26T02:02:03.523Z,938.91
2023-03-26T02:02:13.541Z,938.89
2023-03-26T02:02:23.474Z,938.91
2023-03-26T02:02:33.503Z,938.89
2023-03-26T02:02:43.610Z,938.87
2023-03-26T02:03:03.587Z,938.99
2023-03-26T02:03:13.494Z,938.96
2023-03-26T02:03:23.491Z,938.99
2023-03-26T02:03:34.419Z,938.94
2023-03-26T02:03:43.479Z,938.92
2023-03-26T02:03:53.419Z,938.97
2023-03-26T02:04:03.473Z,938.98
2023-03-26T02:04:13.413Z,938.99
2023-03-26T02:04:23.417Z,938.98
2023-03-26T02:04:43.440Z,938.95
2023-03-26T02:04:53.576Z,939.00
2023-03-26T02:05:03.482Z,938.98
2023-03-26T02:05:13.426Z,938.97
2023-03-26T02:05:23.432Z,938.90
2023-03-26T02:05:34.390Z,938.93
2023-03-26T02:05:43.443Z,938.97
2023-03-26T02:05:53.594Z,939.01
2023-03-26T02:06:13.432Z,938.94
2023-03-26T02:06:23.495Z,938.97
2023-03-26T02:06:33.430Z,938.96
2023-03-26T02:06:43.431Z,938.96
2023-03-26T02:06:53.438Z,938.94
2023-03-26T02:07:04.355Z,938.96
2023-03-26T02:07:13.451Z,939.00
2023-03-26T02:07:33.454Z,938.97
2023-03-26T02:07:43.434Z,938.98
2023-03-26T02:07:53.462Z,938.89
2023-03-26T02:08:03.520Z,938.99
2023-03-26T02:08:13.440Z,938.88
2023-03-26T02:08:23.574Z,938.92
2023-03-26T02:08:33.443Z,938.95
2023-03-26T02:08:43.443Z,938.94
2023-03-26T02:08:53.463Z,938.96
2023-03-26T02:09:03.494Z,938.96
2023-03-26T02:09:13.445Z,938.93
2023-03-26T02:09:23.464Z,938.92
2023-03-26T02:09:33.446Z,938.91
2023-03-26T02:09:43.444Z,938.93
2023-03-26T02:09:53.446Z,938.89
2023-03-26T02:10:03.462Z,938.91
2023-03-26T02:10:13.448Z,938.89
2023-03-26T02:10:33.455Z,938.84
2023-03-26T02:10:43.447Z,938.86
2023-03-26T02:10:53.453Z,938.87
2023-03-26T02:11:03.456Z,938.88
2023-03-26T02:11:13.456Z,938.87
2023-03-26T02:11:23.508Z,938.92
2023-03-26T02:11:43.469Z,938.88
2023-03-26T02:11:53.455Z,938.93
2023-03-26T02:12:03.497Z,938.90
2023-03-26T02:12:13.452Z,938.93
2023-03-26T02:12:23.476Z,938.91
2023-03-26T02:12:33.458Z,938.92
2023-03-26T02:12:43.466Z,938.94
2023-03-26T02:12:53.461Z,938.91
2023-03-26T02:13:03.508Z,938.83
2023-03-26T02:13:13.463Z,938.80
2023-03-26T02:13:23.487Z,938.82
2023-03-26T02:13:33.471Z,938.84
2023-03-26T02:13:43.465Z,938.87
2023-03-26T02:13:53.463Z,938.90
2023-03-26T02:14:03.473Z,938.91
2023-03-26T02:14:13.470Z,938.82
2023-03-26T02:14:33.467Z,938.83
2023-03-26T02:14:43.513Z,938.80
2023-03-26T02:14:53.475Z,938.86
2023-03-26T02:15:03.581Z,938.89
2023-03-26T02:15:13.465Z,938.91
2023-03-26T02:15:23.467Z,938.88
2023-03-26T02:15:33.468Z,938.85
2023-03-26T02:15:43.473Z,938.93
2023-03-26T02:15:53.907Z,938.92